sensor_id;sensor_type;location;lat;lon;timestamp;temperature;humidity
60965;DHT22;46834;51.100;6.886;2022-09-09T00:04:37;19.20;48.00
60965;DHT22;46834;51.100;6.886;2022-09-09T00:09:47;19.10;47.80
60965;DHT22;46834;51.100;6.886;2022-09-09T00:12:35;19.00;47.50
60965;DHT22;46834;51.100;6.886;2022-09-09T00:15:12;19.00;47.70
60965;DHT22;46834;51.100;6.886;2022-09-09T00:20:38;18.90;47.60
60965;DHT22;46834;51.100;6.886;2022-09-09T00:23:32;18.90;47.80
60965;DHT22;46834;51.100;6.886;2022-09-09T00:29:23;18.80;48.00
60965;DHT22;46834;51.100;6.886;2022-09-09T00:31:55;18.80;47.80
60965;DHT22;46834;51.100;6.886;2022-09-09T00:34:29;18.70;47.70
60965;DHT22;46834;51.100;6.886;2022-09-09T00:36:56;18.70;47.70
60965;DHT22;46834;51.100;6.886;2022-09-09T00:39:36;18.70;47.80
60965;DHT22;46834;51.100;6.886;2022-09-09T00:42:23;18.70;48.30
60965;DHT22;46834;51.100;6.886;2022-09-09T00:44:56;18.70;48.20
60965;DHT22;46834;51.100;6.886;2022-09-09T00:53:51;18.80;48.50
60965;DHT22;46834;51.100;6.886;2022-09-09T00:56:29;18.80;48.20
60965;DHT22;46834;51.100;6.886;2022-09-09T00:59:28;18.80;48.20
60965;DHT22;46834;51.100;6.886;2022-09-09T01:02:13;18.80;48.20
60965;DHT22;46834;51.100;6.886;2022-09-09T01:04:50;18.80;48.20
60965;DHT22;46834;51.100;6.886;2022-09-09T01:07:18;18.80;48.00
60965;DHT22;46834;51.100;6.886;2022-09-09T01:09:58;18.80;48.00
60965;DHT22;46834;51.100;6.886;2022-09-09T01:12:40;18.80;48.30
60965;DHT22;46834;51.100;6.886;2022-09-09T01:15:28;18.80;48.20
60965;DHT22;46834;51.100;6.886;2022-09-09T01:18:04;18.80;48.40
60965;DHT22;46834;51.100;6.886;2022-09-09T01:26:33;18.70;48.10
60965;DHT22;46834;51.100;6.886;2022-09-09T01:29:04;18.70;48.30
60965;DHT22;46834;51.100;6.886;2022-09-09T01:31:38;18.60;48.00
60965;DHT22;46834;51.100;6.886;2022-09-09T01:34:14;18.60;48.20
60965;DHT22;46834;51.100;6.886;2022-09-09T01:36:51;18.60;48.30
60965;DHT22;46834;51.100;6.886;2022-09-09T01:39:23;18.60;48.40
60965;DHT22;46834;51.100;6.886;2022-09-09T01:41:49;18.50;48.00
60965;DHT22;46834;51.100;6.886;2022-09-09T01:44:15;18.50;48.10
60965;DHT22;46834;51.100;6.886;2022-09-09T01:46:41;18.40;48.10
60965;DHT22;46834;51.100;6.886;2022-09-09T01:49:07;18.40;48.20
60965;DHT22;46834;51.100;6.886;2022-09-09T01:51:36;18.40;48.30
60965;DHT22;46834;51.100;6.886;2022-09-09T01:54:03;18.40;48.50
60965;DHT22;46834;51.100;6.886;2022-09-09T01:57:03;18.40;48.50
60965;DHT22;46834;51.100;6.886;2022-09-09T02:00:13;18.40;48.90
60965;DHT22;46834;51.100;6.886;2022-09-09T02:05:40;18.40;48.60
60965;DHT22;46834;51.100;6.886;2022-09-09T02:08:14;18.40;48.60
60965;DHT22;46834;51.100;6.886;2022-09-09T02:10:59;18.40;48.40
60965;DHT22;46834;51.100;6.886;2022-09-09T02:13:37;18.40;48.50
60965;DHT22;46834;51.100;6.886;2022-09-09T02:16:15;18.40;48.30
60965;DHT22;46834;51.100;6.886;2022-09-09T02:18:51;18.40;48.50
60965;DHT22;46834;51.100;6.886;2022-09-09T02:21:33;18.30;48.20
60965;DHT22;46834;51.100;6.886;2022-09-09T02:24:05;18.30;48.20
60965;DHT22;46834;51.100;6.886;2022-09-09T02:26:37;18.30;48.20
60965;DHT22;46834;51.100;6.886;2022-09-09T02:29:20;18.30;48.30
60965;DHT22;46834;51.100;6.886;2022-09-09T02:31:51;18.30;48.40
60965;DHT22;46834;51.100;6.886;2022-09-09T02:34:21;18.30;48.20
60965;DHT22;46834;51.100;6.886;2022-09-09T02:36:50;18.30;48.20
60965;DHT22;46834;51.100;6.886;2022-09-09T02:39:19;18.30;48.20
60965;DHT22;46834;51.100;6.886;2022-09-09T02:41:44;18.20;48.10
60965;DHT22;46834;51.100;6.886;2022-09-09T02:44:12;18.20;48.10
60965;DHT22;46834;51.100;6.886;2022-09-09T02:56:04;18.20;48.30
60965;DHT22;46834;51.100;6.886;2022-09-09T02:58:35;18.20;48.40
60965;DHT22;46834;51.100;6.886;2022-09-09T03:01:01;18.20;48.20
60965;DHT22;46834;51.100;6.886;2022-09-09T03:03:28;18.20;48.30
60965;DHT22;46834;51.100;6.886;2022-09-09T03:05:54;18.10;48.30
60965;DHT22;46834;51.100;6.886;2022-09-09T03:08:20;18.10;48.30
60965;DHT22;46834;51.100;6.886;2022-09-09T03:10:46;18.10;48.40
60965;DHT22;46834;51.100;6.886;2022-09-09T03:13:11;18.10;48.40
60965;DHT22;46834;51.100;6.886;2022-09-09T03:15:40;18.10;48.40
60965;DHT22;46834;51.100;6.886;2022-09-09T03:18:06;18.10;48.50
60965;DHT22;46834;51.100;6.886;2022-09-09T03:20:32;18.10;48.50
60965;DHT22;46834;51.100;6.886;2022-09-09T03:22:59;18.10;48.50
60965;DHT22;46834;51.100;6.886;2022-09-09T03:25:25;18.20;48.60
60965;DHT22;46834;51.100;6.886;2022-09-09T03:27:52;18.10;48.50
60965;DHT22;46834;51.100;6.886;2022-09-09T03:30:25;18.10;48.60
60965;DHT22;46834;51.100;6.886;2022-09-09T03:32:52;18.20;48.80
60965;DHT22;46834;51.100;6.886;2022-09-09T03:35:19;18.10;48.60
60965;DHT22;46834;51.100;6.886;2022-09-09T03:37:45;18.10;48.60
60965;DHT22;46834;51.100;6.886;2022-09-09T03:40:11;18.10;48.60
60965;DHT22;46834;51.100;6.886;2022-09-09T03:42:38;18.10;48.70
60965;DHT22;46834;51.100;6.886;2022-09-09T03:45:05;18.10;48.70
60965;DHT22;46834;51.100;6.886;2022-09-09T03:47:34;18.10;48.70
60965;DHT22;46834;51.100;6.886;2022-09-09T03:50:00;18.10;48.70
60965;DHT22;46834;51.100;6.886;2022-09-09T03:52:26;18.10;48.70
60965;DHT22;46834;51.100;6.886;2022-09-09T03:54:53;18.10;48.70
60965;DHT22;46834;51.100;6.886;2022-09-09T03:57:20;18.10;48.80
60965;DHT22;46834;51.100;6.886;2022-09-09T03:59:45;18.10;48.90
60965;DHT22;46834;51.100;6.886;2022-09-09T04:02:11;18.10;48.90
60965;DHT22;46834;51.100;6.886;2022-09-09T04:04:37;18.10;48.90
60965;DHT22;46834;51.100;6.886;2022-09-09T04:07:03;18.10;48.90
60965;DHT22;46834;51.100;6.886;2022-09-09T04:09:31;18.10;48.90
60965;DHT22;46834;51.100;6.886;2022-09-09T04:11:57;18.10;49.00
60965;DHT22;46834;51.100;6.886;2022-09-09T04:14:22;18.10;49.00
60965;DHT22;46834;51.100;6.886;2022-09-09T04:16:48;18.10;49.00
60965;DHT22;46834;51.100;6.886;2022-09-09T04:19:14;18.10;49.00
60965;DHT22;46834;51.100;6.886;2022-09-09T04:21:40;18.10;49.00
60965;DHT22;46834;51.100;6.886;2022-09-09T04:24:08;18.10;49.00
60965;DHT22;46834;51.100;6.886;2022-09-09T04:26:35;18.10;49.10
60965;DHT22;46834;51.100;6.886;2022-09-09T04:29:05;18.20;49.10
60965;DHT22;46834;51.100;6.886;2022-09-09T04:31:33;18.20;49.20
60965;DHT22;46834;51.100;6.886;2022-09-09T04:33:59;18.20;49.10
60965;DHT22;46834;51.100;6.886;2022-09-09T04:36:30;18.20;49.10
60965;DHT22;46834;51.100;6.886;2022-09-09T04:38:57;18.20;49.20
60965;DHT22;46834;51.100;6.886;2022-09-09T04:41:23;18.20;49.10
60965;DHT22;46834;51.100;6.886;2022-09-09T04:43:49;18.20;49.10
60965;DHT22;46834;51.100;6.886;2022-09-09T04:46:15;18.20;49.10
60965;DHT22;46834;51.100;6.886;2022-09-09T04:48:43;18.20;49.10
60965;DHT22;46834;51.100;6.886;2022-09-09T04:51:12;18.20;49.10
60965;DHT22;46834;51.100;6.886;2022-09-09T04:53:39;18.20;49.20
60965;DHT22;46834;51.100;6.886;2022-09-09T04:56:13;18.20;49.10
60965;DHT22;46834;51.100;6.886;2022-09-09T04:58:41;18.20;49.30
60965;DHT22;46834;51.100;6.886;2022-09-09T05:01:13;18.20;49.20
60965;DHT22;46834;51.100;6.886;2022-09-09T05:03:43;18.20;49.20
60965;DHT22;46834;51.100;6.886;2022-09-09T05:06:15;18.20;49.20
60965;DHT22;46834;51.100;6.886;2022-09-09T05:08:43;18.20;49.30
60965;DHT22;46834;51.100;6.886;2022-09-09T05:11:24;18.10;49.20
60965;DHT22;46834;51.100;6.886;2022-09-09T05:13:53;18.20;49.50
60965;DHT22;46834;51.100;6.886;2022-09-09T05:16:20;18.20;49.20
60965;DHT22;46834;51.100;6.886;2022-09-09T05:18:46;18.20;49.30
60965;DHT22;46834;51.100;6.886;2022-09-09T05:21:14;18.20;49.30
60965;DHT22;46834;51.100;6.886;2022-09-09T05:23:41;18.20;49.30
60965;DHT22;46834;51.100;6.886;2022-09-09T05:26:11;18.20;49.30
60965;DHT22;46834;51.100;6.886;2022-09-09T05:28:39;18.20;49.30
60965;DHT22;46834;51.100;6.886;2022-09-09T05:31:09;18.20;49.30
60965;DHT22;46834;51.100;6.886;2022-09-09T05:33:43;18.20;49.50
60965;DHT22;46834;51.100;6.886;2022-09-09T05:36:18;18.20;50.00
60965;DHT22;46834;51.100;6.886;2022-09-09T05:38:45;18.20;49.50
60965;DHT22;46834;51.100;6.886;2022-09-09T05:41:12;18.20;49.40
60965;DHT22;46834;51.100;6.886;2022-09-09T05:43:41;18.30;49.50
60965;DHT22;46834;51.100;6.886;2022-09-09T05:46:12;18.20;49.40
60965;DHT22;46834;51.100;6.886;2022-09-09T05:48:47;18.20;49.50
60965;DHT22;46834;51.100;6.886;2022-09-09T05:51:15;18.20;49.40
60965;DHT22;46834;51.100;6.886;2022-09-09T05:53:50;18.20;49.40
60965;DHT22;46834;51.100;6.886;2022-09-09T05:56:18;18.30;49.50
60965;DHT22;46834;51.100;6.886;2022-09-09T05:58:48;18.30;49.60
60965;DHT22;46834;51.100;6.886;2022-09-09T06:01:16;18.30;49.50
60965;DHT22;46834;51.100;6.886;2022-09-09T06:03:45;18.30;49.50
60965;DHT22;46834;51.100;6.886;2022-09-09T06:06:15;18.30;49.50
60965;DHT22;46834;51.100;6.886;2022-09-09T06:08:43;18.30;49.50
60965;DHT22;46834;51.100;6.886;2022-09-09T06:11:12;18.30;49.40
60965;DHT22;46834;51.100;6.886;2022-09-09T06:13:40;18.30;49.50
60965;DHT22;46834;51.100;6.886;2022-09-09T06:16:15;18.30;49.50
60965;DHT22;46834;51.100;6.886;2022-09-09T06:18:42;18.30;49.70
60965;DHT22;46834;51.100;6.886;2022-09-09T06:21:16;18.30;49.50
60965;DHT22;46834;51.100;6.886;2022-09-09T06:23:52;18.30;49.50
60965;DHT22;46834;51.100;6.886;2022-09-09T06:26:23;18.30;49.40
60965;DHT22;46834;51.100;6.886;2022-09-09T06:28:52;18.30;49.50
60965;DHT22;46834;51.100;6.886;2022-09-09T06:31:21;18.30;49.30
60965;DHT22;46834;51.100;6.886;2022-09-09T06:33:50;18.30;49.30
60965;DHT22;46834;51.100;6.886;2022-09-09T06:36:27;18.30;49.30
60965;DHT22;46834;51.100;6.886;2022-09-09T06:38:55;18.40;49.30
60965;DHT22;46834;51.100;6.886;2022-09-09T06:41:22;18.40;49.30
60965;DHT22;46834;51.100;6.886;2022-09-09T06:43:52;18.40;49.30
60965;DHT22;46834;51.100;6.886;2022-09-09T06:46:22;18.40;49.20
60965;DHT22;46834;51.100;6.886;2022-09-09T06:48:53;18.40;49.30
60965;DHT22;46834;51.100;6.886;2022-09-09T06:51:27;18.40;49.20
60965;DHT22;46834;51.100;6.886;2022-09-09T06:53:59;18.40;49.30
60965;DHT22;46834;51.100;6.886;2022-09-09T06:56:28;18.50;49.40
60965;DHT22;46834;51.100;6.886;2022-09-09T06:58:57;18.60;49.60
60965;DHT22;46834;51.100;6.886;2022-09-09T07:01:26;18.60;49.50
60965;DHT22;46834;51.100;6.886;2022-09-09T07:03:54;18.70;49.60
60965;DHT22;46834;51.100;6.886;2022-09-09T07:06:32;18.80;49.50
60965;DHT22;46834;51.100;6.886;2022-09-09T07:09:02;18.90;49.40
60965;DHT22;46834;51.100;6.886;2022-09-09T07:11:37;19.00;49.50
60965;DHT22;46834;51.100;6.886;2022-09-09T07:14:07;19.00;49.30
60965;DHT22;46834;51.100;6.886;2022-09-09T07:16:34;19.20;49.50
60965;DHT22;46834;51.100;6.886;2022-09-09T07:19:03;19.30;49.50
60965;DHT22;46834;51.100;6.886;2022-09-09T07:21:30;19.40;49.20
60965;DHT22;46834;51.100;6.886;2022-09-09T07:23:57;19.50;49.10
60965;DHT22;46834;51.100;6.886;2022-09-09T07:26:27;19.60;49.00
60965;DHT22;46834;51.100;6.886;2022-09-09T07:28:55;19.60;48.80
60965;DHT22;46834;51.100;6.886;2022-09-09T07:31:25;19.70;48.80
60965;DHT22;46834;51.100;6.886;2022-09-09T07:33:52;19.70;48.70
60965;DHT22;46834;51.100;6.886;2022-09-09T07:36:43;19.70;48.60
60965;DHT22;46834;51.100;6.886;2022-09-09T07:39:11;19.80;48.30
60965;DHT22;46834;51.100;6.886;2022-09-09T07:41:46;19.80;48.50
60965;DHT22;46834;51.100;6.886;2022-09-09T07:44:24;19.90;48.30
60965;DHT22;46834;51.100;6.886;2022-09-09T07:46:50;20.00;48.00
60965;DHT22;46834;51.100;6.886;2022-09-09T07:49:16;20.00;48.20
60965;DHT22;46834;51.100;6.886;2022-09-09T07:51:44;20.10;48.20
60965;DHT22;46834;51.100;6.886;2022-09-09T07:54:14;20.10;48.00
60965;DHT22;46834;51.100;6.886;2022-09-09T07:56:41;20.20;47.90
60965;DHT22;46834;51.100;6.886;2022-09-09T07:59:08;20.20;47.90
60965;DHT22;46834;51.100;6.886;2022-09-09T08:01:38;20.20;47.80
60965;DHT22;46834;51.100;6.886;2022-09-09T08:04:07;20.30;47.60
60965;DHT22;46834;51.100;6.886;2022-09-09T08:06:44;20.20;47.20
60965;DHT22;46834;51.100;6.886;2022-09-09T08:09:15;20.20;47.00
60965;DHT22;46834;51.100;6.886;2022-09-09T08:11:42;20.20;46.90
60965;DHT22;46834;51.100;6.886;2022-09-09T08:14:10;20.20;46.90
60965;DHT22;46834;51.100;6.886;2022-09-09T08:16:45;20.20;46.90
60965;DHT22;46834;51.100;6.886;2022-09-09T08:19:13;20.20;47.00
60965;DHT22;46834;51.100;6.886;2022-09-09T08:21:41;20.10;47.00
60965;DHT22;46834;51.100;6.886;2022-09-09T08:24:09;20.20;47.10
60965;DHT22;46834;51.100;6.886;2022-09-09T08:26:41;20.20;47.10
60965;DHT22;46834;51.100;6.886;2022-09-09T08:29:10;20.20;46.90
60965;DHT22;46834;51.100;6.886;2022-09-09T08:31:39;20.20;46.80
60965;DHT22;46834;51.100;6.886;2022-09-09T08:34:07;20.30;46.70
60965;DHT22;46834;51.100;6.886;2022-09-09T08:36:39;20.40;46.70
60965;DHT22;46834;51.100;6.886;2022-09-09T08:39:11;20.40;46.30
60965;DHT22;46834;51.100;6.886;2022-09-09T08:44:41;20.50;46.30
60965;DHT22;46834;51.100;6.886;2022-09-09T08:50:32;20.70;45.90
60965;DHT22;46834;51.100;6.886;2022-09-09T08:53:22;20.70;45.50
60965;DHT22;46834;51.100;6.886;2022-09-09T08:56:02;20.70;45.20
60965;DHT22;46834;51.100;6.886;2022-09-09T08:58:35;20.70;45.20
60965;DHT22;46834;51.100;6.886;2022-09-09T09:06:26;20.70;45.10
60965;DHT22;46834;51.100;6.886;2022-09-09T09:12:17;20.70;44.70
60965;DHT22;46834;51.100;6.886;2022-09-09T09:14:47;20.70;44.60
60965;DHT22;46834;51.100;6.886;2022-09-09T09:17:19;20.70;44.70
60965;DHT22;46834;51.100;6.886;2022-09-09T09:19:47;20.70;44.40
60965;DHT22;46834;51.100;6.886;2022-09-09T09:22:41;20.70;44.40
60965;DHT22;46834;51.100;6.886;2022-09-09T09:25:27;20.70;44.30
60965;DHT22;46834;51.100;6.886;2022-09-09T09:28:12;20.70;43.80
60965;DHT22;46834;51.100;6.886;2022-09-09T09:31:03;20.70;44.30
60965;DHT22;46834;51.100;6.886;2022-09-09T09:33:50;20.80;44.30
60965;DHT22;46834;51.100;6.886;2022-09-09T09:36:23;20.80;44.00
60965;DHT22;46834;51.100;6.886;2022-09-09T09:38:59;20.80;44.90
60965;DHT22;46834;51.100;6.886;2022-09-09T09:41:44;20.80;44.00
60965;DHT22;46834;51.100;6.886;2022-09-09T09:44:43;20.90;43.80
60965;DHT22;46834;51.100;6.886;2022-09-09T09:47:22;20.90;43.90
60965;DHT22;46834;51.100;6.886;2022-09-09T09:49:57;20.90;43.80
60965;DHT22;46834;51.100;6.886;2022-09-09T09:52:33;20.90;43.80
60965;DHT22;46834;51.100;6.886;2022-09-09T09:55:04;21.00;43.70
60965;DHT22;46834;51.100;6.886;2022-09-09T09:57:37;21.00;44.00
60965;DHT22;46834;51.100;6.886;2022-09-09T10:00:18;21.00;44.10
60965;DHT22;46834;51.100;6.886;2022-09-09T10:02:46;21.00;43.80
60965;DHT22;46834;51.100;6.886;2022-09-09T10:05:15;21.00;43.70
60965;DHT22;46834;51.100;6.886;2022-09-09T10:07:44;21.10;43.90
60965;DHT22;46834;51.100;6.886;2022-09-09T10:10:15;21.10;43.90
60965;DHT22;46834;51.100;6.886;2022-09-09T10:12:59;21.10;43.90
60965;DHT22;46834;51.100;6.886;2022-09-09T10:19:05;21.20;43.80
60965;DHT22;46834;51.100;6.886;2022-09-09T10:25:05;21.30;43.70
60965;DHT22;46834;51.100;6.886;2022-09-09T10:33:33;21.50;43.80
60965;DHT22;46834;51.100;6.886;2022-09-09T10:36:26;21.60;44.10
60965;DHT22;46834;51.100;6.886;2022-09-09T10:38:57;21.70;43.50
60965;DHT22;46834;51.100;6.886;2022-09-09T10:41:51;21.70;43.50
60965;DHT22;46834;51.100;6.886;2022-09-09T10:55:42;21.90;43.20
60965;DHT22;46834;51.100;6.886;2022-09-09T10:58:15;22.00;42.80
60965;DHT22;46834;51.100;6.886;2022-09-09T11:01:01;21.90;42.40
60965;DHT22;46834;51.100;6.886;2022-09-09T11:03:36;21.90;42.20
60965;DHT22;46834;51.100;6.886;2022-09-09T11:06:12;21.90;42.50
60965;DHT22;46834;51.100;6.886;2022-09-09T11:08:42;21.80;42.50
60965;DHT22;46834;51.100;6.886;2022-09-09T11:11:16;21.80;42.50
60965;DHT22;46834;51.100;6.886;2022-09-09T11:14:15;21.80;42.30
60965;DHT22;46834;51.100;6.886;2022-09-09T11:17:24;21.80;42.50
60965;DHT22;46834;51.100;6.886;2022-09-09T11:19:57;21.80;42.60
60965;DHT22;46834;51.100;6.886;2022-09-09T11:22:48;21.80;42.80
60965;DHT22;46834;51.100;6.886;2022-09-09T11:31:05;21.90;42.50
60965;DHT22;46834;51.100;6.886;2022-09-09T11:37:20;21.90;43.40
60965;DHT22;46834;51.100;6.886;2022-09-09T11:40:19;21.90;42.60
60965;DHT22;46834;51.100;6.886;2022-09-09T11:42:49;21.90;43.30
60965;DHT22;46834;51.100;6.886;2022-09-09T11:45:39;21.90;42.90
60965;DHT22;46834;51.100;6.886;2022-09-09T11:51:10;21.90;42.60
60965;DHT22;46834;51.100;6.886;2022-09-09T11:56:46;22.00;42.50
60965;DHT22;46834;51.100;6.886;2022-09-09T11:59:31;21.90;42.10
60965;DHT22;46834;51.100;6.886;2022-09-09T12:02:00;21.90;42.00
60965;DHT22;46834;51.100;6.886;2022-09-09T12:04:58;21.90;41.90
60965;DHT22;46834;51.100;6.886;2022-09-09T12:07:56;21.90;41.90
60965;DHT22;46834;51.100;6.886;2022-09-09T12:10:30;21.90;42.00
60965;DHT22;46834;51.100;6.886;2022-09-09T12:13:18;21.90;41.90
60965;DHT22;46834;51.100;6.886;2022-09-09T12:18:23;21.80;41.90
60965;DHT22;46834;51.100;6.886;2022-09-09T12:21:02;21.80;41.80
60965;DHT22;46834;51.100;6.886;2022-09-09T12:23:52;21.80;42.00
60965;DHT22;46834;51.100;6.886;2022-09-09T12:26:23;21.70;42.10
60965;DHT22;46834;51.100;6.886;2022-09-09T12:37:50;21.90;41.90
60965;DHT22;46834;51.100;6.886;2022-09-09T12:40:20;21.90;42.20
60965;DHT22;46834;51.100;6.886;2022-09-09T12:42:48;22.00;42.50
60965;DHT22;46834;51.100;6.886;2022-09-09T12:45:23;22.00;42.50
60965;DHT22;46834;51.100;6.886;2022-09-09T12:50:36;22.10;42.30
60965;DHT22;46834;51.100;6.886;2022-09-09T12:53:10;22.10;42.10
60965;DHT22;46834;51.100;6.886;2022-09-09T12:56:02;22.00;42.40
60965;DHT22;46834;51.100;6.886;2022-09-09T12:58:31;21.90;43.90
60965;DHT22;46834;51.100;6.886;2022-09-09T13:00:59;21.80;44.00
60965;DHT22;46834;51.100;6.886;2022-09-09T13:03:27;21.50;44.40
60965;DHT22;46834;51.100;6.886;2022-09-09T13:05:54;21.40;44.80
60965;DHT22;46834;51.100;6.886;2022-09-09T13:08:25;21.30;45.00
60965;DHT22;46834;51.100;6.886;2022-09-09T13:11:03;21.20;45.30
60965;DHT22;46834;51.100;6.886;2022-09-09T13:13:36;21.20;45.50
60965;DHT22;46834;51.100;6.886;2022-09-09T13:16:04;21.20;46.00
60965;DHT22;46834;51.100;6.886;2022-09-09T13:18:36;21.30;46.00
60965;DHT22;46834;51.100;6.886;2022-09-09T13:21:05;21.30;46.00
60965;DHT22;46834;51.100;6.886;2022-09-09T13:23:33;21.30;45.80
60965;DHT22;46834;51.100;6.886;2022-09-09T13:26:24;21.40;45.70
60965;DHT22;46834;51.100;6.886;2022-09-09T13:28:53;21.40;46.00
60965;DHT22;46834;51.100;6.886;2022-09-09T13:31:28;21.50;45.70
60965;DHT22;46834;51.100;6.886;2022-09-09T13:33:55;21.60;45.80
60965;DHT22;46834;51.100;6.886;2022-09-09T13:36:31;21.60;45.70
60965;DHT22;46834;51.100;6.886;2022-09-09T13:39:01;21.70;46.10
60965;DHT22;46834;51.100;6.886;2022-09-09T13:41:42;21.80;46.00
60965;DHT22;46834;51.100;6.886;2022-09-09T13:44:30;21.80;46.10
60965;DHT22;46834;51.100;6.886;2022-09-09T13:49:41;22.00;45.50
60965;DHT22;46834;51.100;6.886;2022-09-09T13:52:12;22.10;45.10
60965;DHT22;46834;51.100;6.886;2022-09-09T13:54:40;22.10;45.10
60965;DHT22;46834;51.100;6.886;2022-09-09T13:57:18;22.10;44.80
60965;DHT22;46834;51.100;6.886;2022-09-09T13:59:46;22.20;44.90
60965;DHT22;46834;51.100;6.886;2022-09-09T14:02:13;22.20;44.70
60965;DHT22;46834;51.100;6.886;2022-09-09T14:04:39;22.20;44.50
60965;DHT22;46834;51.100;6.886;2022-09-09T14:07:12;22.30;44.50
60965;DHT22;46834;51.100;6.886;2022-09-09T14:09:40;22.30;44.60
60965;DHT22;46834;51.100;6.886;2022-09-09T14:12:11;22.30;44.70
60965;DHT22;46834;51.100;6.886;2022-09-09T14:14:39;22.40;44.60
60965;DHT22;46834;51.100;6.886;2022-09-09T14:17:05;22.40;44.60
60965;DHT22;46834;51.100;6.886;2022-09-09T14:19:31;22.40;44.40
60965;DHT22;46834;51.100;6.886;2022-09-09T14:21:57;22.50;44.50
60965;DHT22;46834;51.100;6.886;2022-09-09T14:24:23;22.50;44.50
60965;DHT22;46834;51.100;6.886;2022-09-09T14:26:50;22.60;44.50
60965;DHT22;46834;51.100;6.886;2022-09-09T14:29:16;22.60;44.40
60965;DHT22;46834;51.100;6.886;2022-09-09T14:31:41;22.70;44.20
60965;DHT22;46834;51.100;6.886;2022-09-09T14:34:07;22.70;43.90
60965;DHT22;46834;51.100;6.886;2022-09-09T14:36:33;22.70;43.80
60965;DHT22;46834;51.100;6.886;2022-09-09T14:38:59;22.70;43.70
60965;DHT22;46834;51.100;6.886;2022-09-09T14:41:24;22.70;43.60
60965;DHT22;46834;51.100;6.886;2022-09-09T14:43:50;22.60;43.40
60965;DHT22;46834;51.100;6.886;2022-09-09T14:46:18;22.50;43.40
60965;DHT22;46834;51.100;6.886;2022-09-09T14:48:45;22.40;43.40
60965;DHT22;46834;51.100;6.886;2022-09-09T14:51:17;22.20;43.50
60965;DHT22;46834;51.100;6.886;2022-09-09T14:53:45;22.10;43.70
60965;DHT22;46834;51.100;6.886;2022-09-09T14:56:17;22.00;44.00
60965;DHT22;46834;51.100;6.886;2022-09-09T14:58:45;21.90;44.30
60965;DHT22;46834;51.100;6.886;2022-09-09T15:01:14;21.80;44.90
60965;DHT22;46834;51.100;6.886;2022-09-09T15:03:42;21.80;44.40
60965;DHT22;46834;51.100;6.886;2022-09-09T15:06:14;21.70;44.50
60965;DHT22;46834;51.100;6.886;2022-09-09T15:08:42;21.70;44.60
60965;DHT22;46834;51.100;6.886;2022-09-09T15:11:10;21.70;44.80
60965;DHT22;46834;51.100;6.886;2022-09-09T15:13:38;21.70;44.80
60965;DHT22;46834;51.100;6.886;2022-09-09T15:18:32;21.60;44.00
60965;DHT22;46834;51.100;6.886;2022-09-09T15:20:59;21.60;44.00
60965;DHT22;46834;51.100;6.886;2022-09-09T15:23:26;21.60;44.10
60965;DHT22;46834;51.100;6.886;2022-09-09T15:25:53;21.60;44.00
60965;DHT22;46834;51.100;6.886;2022-09-09T15:28:21;21.60;44.10
60965;DHT22;46834;51.100;6.886;2022-09-09T15:30:48;21.60;44.10
60965;DHT22;46834;51.100;6.886;2022-09-09T15:33:14;21.50;44.10
60965;DHT22;46834;51.100;6.886;2022-09-09T15:35:40;21.50;44.10
60965;DHT22;46834;51.100;6.886;2022-09-09T15:38:06;21.50;44.00
60965;DHT22;46834;51.100;6.886;2022-09-09T15:40:31;21.50;44.00
60965;DHT22;46834;51.100;6.886;2022-09-09T15:43:00;21.50;44.00
60965;DHT22;46834;51.100;6.886;2022-09-09T15:45:26;21.40;44.00
60965;DHT22;46834;51.100;6.886;2022-09-09T15:47:56;21.40;44.20
60965;DHT22;46834;51.100;6.886;2022-09-09T15:50:22;21.40;44.40
60965;DHT22;46834;51.100;6.886;2022-09-09T15:52:48;21.30;44.60
60965;DHT22;46834;51.100;6.886;2022-09-09T15:55:14;21.20;44.70
60965;DHT22;46834;51.100;6.886;2022-09-09T15:57:40;21.10;45.00
60965;DHT22;46834;51.100;6.886;2022-09-09T16:00:06;21.00;45.30
60965;DHT22;46834;51.100;6.886;2022-09-09T16:02:32;21.00;45.60
60965;DHT22;46834;51.100;6.886;2022-09-09T16:04:58;20.90;45.80
60965;DHT22;46834;51.100;6.886;2022-09-09T16:07:24;20.90;46.10
60965;DHT22;46834;51.100;6.886;2022-09-09T16:09:50;20.90;46.20
60965;DHT22;46834;51.100;6.886;2022-09-09T16:12:18;20.90;46.30
60965;DHT22;46834;51.100;6.886;2022-09-09T16:14:44;20.90;46.40
60965;DHT22;46834;51.100;6.886;2022-09-09T16:17:10;20.90;46.60
60965;DHT22;46834;51.100;6.886;2022-09-09T16:19:36;20.90;46.50
60965;DHT22;46834;51.100;6.886;2022-09-09T16:22:03;20.90;46.20
60965;DHT22;46834;51.100;6.886;2022-09-09T16:24:32;20.90;46.20
60965;DHT22;46834;51.100;6.886;2022-09-09T16:26:58;20.90;46.20
60965;DHT22;46834;51.100;6.886;2022-09-09T16:29:24;20.90;46.10
60965;DHT22;46834;51.100;6.886;2022-09-09T16:31:53;20.90;46.10
60965;DHT22;46834;51.100;6.886;2022-09-09T16:34:20;20.80;46.00
60965;DHT22;46834;51.100;6.886;2022-09-09T16:36:48;20.80;46.00
60965;DHT22;46834;51.100;6.886;2022-09-09T16:39:16;20.70;45.80
60965;DHT22;46834;51.100;6.886;2022-09-09T16:41:45;20.70;46.00
60965;DHT22;46834;51.100;6.886;2022-09-09T16:44:14;20.60;45.90
60965;DHT22;46834;51.100;6.886;2022-09-09T16:46:45;20.60;46.00
60965;DHT22;46834;51.100;6.886;2022-09-09T16:49:14;20.40;45.90
60965;DHT22;46834;51.100;6.886;2022-09-09T16:51:46;20.40;46.00
60965;DHT22;46834;51.100;6.886;2022-09-09T16:54:18;20.40;46.40
60965;DHT22;46834;51.100;6.886;2022-09-09T16:56:47;20.30;46.10
60965;DHT22;46834;51.100;6.886;2022-09-09T16:59:15;20.30;46.20
60965;DHT22;46834;51.100;6.886;2022-09-09T17:01:43;20.20;46.20
60965;DHT22;46834;51.100;6.886;2022-09-09T17:04:16;20.20;46.40
60965;DHT22;46834;51.100;6.886;2022-09-09T17:06:49;20.20;46.50
60965;DHT22;46834;51.100;6.886;2022-09-09T17:09:17;20.10;46.40
60965;DHT22;46834;51.100;6.886;2022-09-09T17:11:44;20.10;46.30
60965;DHT22;46834;51.100;6.886;2022-09-09T17:14:14;20.00;46.90
60965;DHT22;46834;51.100;6.886;2022-09-09T17:16:42;20.00;46.50
60965;DHT22;46834;51.100;6.886;2022-09-09T17:19:09;20.00;46.40
60965;DHT22;46834;51.100;6.886;2022-09-09T17:21:36;19.90;46.50
60965;DHT22;46834;51.100;6.886;2022-09-09T17:24:03;19.90;46.50
60965;DHT22;46834;51.100;6.886;2022-09-09T17:26:31;19.80;46.40
60965;DHT22;46834;51.100;6.886;2022-09-09T17:28:59;19.80;46.60
60965;DHT22;46834;51.100;6.886;2022-09-09T17:31:27;19.70;46.60
60965;DHT22;46834;51.100;6.886;2022-09-09T17:33:55;19.70;46.60
60965;DHT22;46834;51.100;6.886;2022-09-09T17:36:32;19.70;46.60
60965;DHT22;46834;51.100;6.886;2022-09-09T17:39:00;19.60;46.90
60965;DHT22;46834;51.100;6.886;2022-09-09T17:41:39;19.60;46.70
60965;DHT22;46834;51.100;6.886;2022-09-09T17:44:06;19.60;47.10
60965;DHT22;46834;51.100;6.886;2022-09-09T17:46:39;19.60;46.90
60965;DHT22;46834;51.100;6.886;2022-09-09T17:49:11;19.50;47.00